Time;durP1;ratioP1;P1;durP2;ratioP2;P2;SDS_P1;SDS_P2;PMS_P1;PMS_P2;Temp;Humidity;BMP_temperature;BMP_pressure;BME280_temperature;BME280_humidity;BME280_pressure;Samples;Min_cycle;Max_cycle;Signal;HPM_P1;HPM_P2
2022/03/20 00:00:24;;;;;;;;;;;5.20;99.90;;;;;;5053508;28;19925;-56
2022/03/20 00:02:50;;;;;;;;;;;5.10;99.90;;;;;;5053394;28;19925;-56
2022/03/20 00:05:17;;;;;;;;;;;5.20;99.90;;;;;;5053490;28;19986;-55
2022/03/20 00:07:44;;;;;;;;;;;5.10;99.90;;;;;;5053458;28;19928;-56
2022/03/20 00:10:10;;;;;;;;;;;5.10;99.90;;;;;;5053376;28;19956;-56
2022/03/20 00:12:36;;;;;;;;;;;5.10;99.90;;;;;;5053457;28;20358;-55
2022/03/20 00:15:02;;;;;;;;;;;5.10;99.90;;;;;;5053247;28;19983;-55
2022/03/20 00:17:28;;;;;;;;;;;5.10;99.90;;;;;;5053383;28;20291;-56
2022/03/20 00:19:53;;;;;;;;;;;5.10;99.90;;;;;;5053375;28;19925;-55
2022/03/20 00:22:19;;;;;;;;;;;5.00;99.90;;;;;;5053697;28;19925;-56
2022/03/20 00:24:44;;;;;;;;;;;5.00;99.90;;;;;;5053617;28;19972;-56
2022/03/20 00:27:13;;;;;;;;;;;5.00;99.90;;;;;;5053247;28;19924;-54
2022/03/20 00:29:39;;;;;;;;;;;5.00;99.90;;;;;;5053407;28;20030;-54
2022/03/20 00:32:06;;;;;;;;;;;5.00;99.90;;;;;;5053135;28;19968;-56
2022/03/20 00:34:31;;;;;;;;;;;5.00;99.90;;;;;;5053458;28;19929;-52
2022/03/20 00:36:57;;;;;;;;;;;4.90;99.90;;;;;;5053392;28;19925;-54
2022/03/20 00:39:22;;;;;;;;;;;4.90;99.90;;;;;;5038208;28;19935;-54
2022/03/20 00:41:48;;;;;;;;;;;4.90;99.90;;;;;;5056661;28;19931;-54
2022/03/20 00:44:13;;;;;;;;;;;4.90;99.90;;;;;;5056785;28;19925;-54
2022/03/20 00:46:39;;;;;;;;;;;4.80;99.90;;;;;;5038825;28;19924;-55
2022/03/20 00:49:05;;;;;;;;;;;4.80;99.90;;;;;;5056665;28;19932;-54
2022/03/20 00:51:31;;;;;;;;;;;4.80;99.90;;;;;;5056643;28;20295;-56
2022/03/20 00:53:57;;;;;;;;;;;4.80;99.90;;;;;;5056760;28;19921;-54
2022/03/20 00:56:22;;;;;;;;;;;4.80;99.90;;;;;;5056394;28;19925;-55
2022/03/20 00:58:48;;;;;;;;;;;4.70;99.90;;;;;;5056449;28;19924;-56
2022/03/20 01:01:14;;;;;;;;;;;4.70;99.90;;;;;;5056506;28;19925;-56
2022/03/20 01:03:40;;;;;;;;;;;4.70;99.90;;;;;;5056236;28;19925;-56
2022/03/20 01:06:07;;;;;;;;;;;4.70;99.90;;;;;;5056427;28;19964;-56
2022/03/20 01:08:36;;;;;;;;;;;4.70;99.90;;;;;;5056315;28;20019;-56
2022/03/20 01:11:04;;;;;;;;;;;4.60;99.90;;;;;;5056024;28;19925;-55
2022/03/20 01:13:29;;;;;;;;;;;4.60;99.90;;;;;;5038291;28;19924;-56
2022/03/20 01:15:55;;;;;;;;;;;4.60;99.90;;;;;;5055386;28;19931;-56
2022/03/20 01:18:21;;;;;;;;;;;4.60;99.90;;;;;;5055710;28;19925;-55
2022/03/20 01:20:46;;;;;;;;;;;4.60;99.90;;;;;;5055666;28;19947;-56
2022/03/20 01:23:12;;;;;;;;;;;4.50;99.90;;;;;;5055525;28;19932;-56
2022/03/20 01:25:39;;;;;;;;;;;4.50;99.90;;;;;;5055694;28;19978;-55
2022/03/20 01:28:04;;;;;;;;;;;4.50;99.90;;;;;;5055786;28;19924;-53
2022/03/20 01:30:30;;;;;;;;;;;4.50;99.90;;;;;;5055689;28;20448;-55
2022/03/20 01:32:55;;;;;;;;;;;4.50;99.90;;;;;;5055989;28;19932;-55
2022/03/20 01:35:20;;;;;;;;;;;4.50;99.90;;;;;;5055963;28;20422;-56
2022/03/20 01:37:46;;;;;;;;;;;4.50;99.90;;;;;;5055601;28;20276;-54
2022/03/20 01:40:11;;;;;;;;;;;4.40;99.90;;;;;;5055669;28;19925;-56
2022/03/20 01:42:40;;;;;;;;;;;4.40;99.90;;;;;;5055473;28;19925;-53
2022/03/20 01:45:15;;;;;;;;;;;4.40;99.90;;;;;;5055541;28;19925;-56
2022/03/20 01:47:41;;;;;;;;;;;4.40;99.90;;;;;;5055459;28;19983;-56
2022/03/20 01:50:07;;;;;;;;;;;4.30;99.90;;;;;;5055441;28;20240;-56
2022/03/20 01:52:33;;;;;;;;;;;4.30;99.90;;;;;;5055263;28;20015;-56
2022/03/20 01:54:59;;;;;;;;;;;4.30;99.90;;;;;;5055418;28;20050;-56
2022/03/20 01:57:26;;;;;;;;;;;4.20;99.90;;;;;;5037233;28;19946;-55
2022/03/20 01:59:52;;;;;;;;;;;4.20;99.90;;;;;;5055379;28;19933;-54
2022/03/20 02:02:18;;;;;;;;;;;4.20;99.90;;;;;;5055241;28;19925;-56
2022/03/20 02:04:44;;;;;;;;;;;4.20;99.90;;;;;;5055170;28;19924;-56
2022/03/20 02:07:09;;;;;;;;;;;4.30;99.90;;;;;;5054916;28;20021;-53
2022/03/20 02:09:36;;;;;;;;;;;4.20;99.90;;;;;;5055000;28;19929;-55
2022/03/20 02:12:01;;;;;;;;;;;4.20;99.90;;;;;;5055070;28;20442;-56
2022/03/20 02:14:27;;;;;;;;;;;4.10;99.90;;;;;;5055224;28;19972;-55
2022/03/20 02:16:53;;;;;;;;;;;4.10;99.90;;;;;;5055357;28;20313;-56
2022/03/20 02:19:19;;;;;;;;;;;4.10;99.90;;;;;;5055152;28;19932;-56
2022/03/20 02:21:45;;;;;;;;;;;4.10;99.90;;;;;;5054904;28;19971;-56
2022/03/20 02:24:29;;;;;;;;;;;4.10;99.90;;;;;;5055033;28;20290;-55
2022/03/20 02:27:09;;;;;;;;;;;4.10;99.90;;;;;;5055030;28;19924;-56
2022/03/20 02:29:35;;;;;;;;;;;4.10;99.90;;;;;;5054899;28;20012;-56
2022/03/20 02:32:01;;;;;;;;;;;4.10;99.90;;;;;;5054714;28;19925;-56
2022/03/20 02:34:27;;;;;;;;;;;4.00;99.90;;;;;;5054771;28;19932;-56
2022/03/20 02:36:53;;;;;;;;;;;4.00;99.90;;;;;;5054580;28;19928;-56
2022/03/20 02:39:18;;;;;;;;;;;4.00;99.90;;;;;;5054216;28;20046;-56
2022/03/20 02:41:44;;;;;;;;;;;3.90;99.90;;;;;;5054552;28;19946;-56
2022/03/20 02:44:10;;;;;;;;;;;3.90;99.90;;;;;;5054457;28;19924;-56
2022/03/20 02:46:37;;;;;;;;;;;3.90;99.90;;;;;;5054345;28;19924;-55
2022/03/20 02:49:06;;;;;;;;;;;3.80;99.90;;;;;;5054514;28;19925;-54
2022/03/20 02:51:32;;;;;;;;;;;3.80;99.90;;;;;;5096648;22;19928;-73
2022/03/20 02:53:57;;;;;;;;;;;3.80;99.90;;;;;;5035295;28;19925;-72
2022/03/20 02:56:23;;;;;;;;;;;3.80;99.90;;;;;;5053248;28;19924;-72
2022/03/20 02:58:49;;;;;;;;;;;3.70;99.90;;;;;;5053235;28;19979;-72
2022/03/20 03:01:17;;;;;;;;;;;3.70;99.90;;;;;;5034703;28;20291;-72
2022/03/20 03:03:45;;;;;;;;;;;3.70;99.90;;;;;;5035198;28;19974;-72
2022/03/20 03:06:11;;;;;;;;;;;3.70;99.90;;;;;;5053047;28;20287;-73
2022/03/20 03:11:41;;;;;;;;;;;3.70;99.90;;;;;;5011316;28;19929;-73
2022/03/20 03:15:19;;;;;;;;;;;3.60;99.90;;;;;;4994799;28;19926;-73
2022/03/20 03:16:52;;;;;;;;;;;3.60;99.90;;;;;;5011219;28;19925;-73
2022/03/20 03:19:18;;;;;;;;;;;3.60;99.90;;;;;;4994765;28;19925;-72
2022/03/20 03:21:43;;;;;;;;;;;3.60;99.90;;;;;;5011171;28;19975;-73
2022/03/20 03:24:08;;;;;;;;;;;3.60;99.90;;;;;;5011078;28;19951;-72
2022/03/20 03:26:34;;;;;;;;;;;3.50;99.90;;;;;;5011010;28;20432;-73
2022/03/20 03:28:59;;;;;;;;;;;3.50;99.90;;;;;;5011085;28;19929;-73
2022/03/20 03:31:25;;;;;;;;;;;3.40;99.90;;;;;;5010996;28;20052;-73
2022/03/20 03:36:37;;;;;;;;;;;3.50;99.90;;;;;;5011106;28;19925;-73
2022/03/20 03:39:03;;;;;;;;;;;3.50;99.90;;;;;;4994646;28;20302;-72
2022/03/20 03:41:28;;;;;;;;;;;3.40;99.90;;;;;;5015531;28;19925;-73
2022/03/20 03:43:53;;;;;;;;;;;3.40;99.90;;;;;;5034765;28;20308;-73
2022/03/20 03:46:19;;;;;;;;;;;3.40;99.90;;;;;;5052930;28;19931;-73
2022/03/20 03:48:45;;;;;;;;;;;3.40;99.90;;;;;;5052711;28;19931;-72
2022/03/20 03:51:10;;;;;;;;;;;3.40;99.90;;;;;;5061605;28;20311;-73
2022/03/20 03:53:35;;;;;;;;;;;3.40;99.90;;;;;;5073095;28;20360;-73
2022/03/20 03:56:01;;;;;;;;;;;3.40;99.90;;;;;;5054809;28;19925;-73
2022/03/20 03:58:27;;;;;;;;;;;3.30;99.90;;;;;;5054538;28;19931;-73
2022/03/20 04:00:52;;;;;;;;;;;3.30;99.90;;;;;;5073783;28;19925;-73
2022/03/20 04:03:18;;;;;;;;;;;3.40;99.90;;;;;;5054669;28;20384;-73
2022/03/20 04:05:43;;;;;;;;;;;3.30;99.90;;;;;;5054833;28;19928;-73
2022/03/20 04:08:09;;;;;;;;;;;3.30;99.90;;;;;;5054754;28;20399;-72
2022/03/20 04:10:35;;;;;;;;;;;3.30;99.90;;;;;;5054600;28;19925;-72
2022/03/20 04:13:00;;;;;;;;;;;3.30;99.90;;;;;;5073104;28;19924;-73
2022/03/20 04:15:26;;;;;;;;;;;3.20;99.90;;;;;;5058289;28;19925;-72
2022/03/20 04:17:52;;;;;;;;;;;3.20;99.90;;;;;;5058242;28;19925;-72
2022/03/20 04:20:17;;;;;;;;;;;3.20;99.90;;;;;;5076103;28;20372;-72
2022/03/20 04:23:42;;;;;;;;;;;3.20;99.90;;;;;;5076228;28;19977;-72
2022/03/20 04:25:29;;;;;;;;;;;3.20;99.90;;;;;;5058108;28;19924;-72
2022/03/20 04:27:56;;;;;;;;;;;3.20;99.90;;;;;;5076259;28;19924;-72
2022/03/20 04:30:24;;;;;;;;;;;3.20;99.90;;;;;;5076066;28;20383;-73
2022/03/20 04:32:50;;;;;;;;;;;3.20;99.90;;;;;;5076125;28;20011;-72
2022/03/20 04:35:16;;;;;;;;;;;3.10;99.90;;;;;;5057892;28;20415;-73
2022/03/20 04:37:44;;;;;;;;;;;3.10;99.90;;;;;;5058019;28;19925;-72
2022/03/20 04:40:10;;;;;;;;;;;3.10;99.90;;;;;;5076009;28;19925;-73
2022/03/20 04:42:36;;;;;;;;;;;3.10;99.90;;;;;;5076017;28;20011;-72
2022/03/20 04:45:02;;;;;;;;;;;3.10;99.90;;;;;;5057814;28;19974;-72
2022/03/20 04:58:29;;;;;;;;;;;3.10;99.90;;;;;;5075573;28;19929;-72
2022/03/20 05:00:55;;;;;;;;;;;3.00;99.90;;;;;;5075883;28;19932;-72
2022/03/20 05:03:21;;;;;;;;;;;3.00;99.90;;;;;;5040810;28;19928;-72
2022/03/20 05:05:47;;;;;;;;;;;3.00;99.90;;;;;;5057432;28;19931;-73
2022/03/20 05:08:12;;;;;;;;;;;3.00;99.90;;;;;;5075432;28;20015;-73
2022/03/20 05:13:22;;;;;;;;;;;3.00;99.90;;;;;;5075455;28;19924;-73
2022/03/20 05:15:48;;;;;;;;;;;3.00;99.90;;;;;;5057219;28;19924;-73
2022/03/20 05:18:14;;;;;;;;;;;2.90;99.90;;;;;;5057390;28;19974;-73
2022/03/20 05:20:40;;;;;;;;;;;2.90;99.90;;;;;;5057031;28;19931;-73
2022/03/20 05:23:05;;;;;;;;;;;2.90;99.90;;;;;;5057065;28;20053;-72
2022/03/20 05:25:31;;;;;;;;;;;2.90;99.90;;;;;;5074553;28;20057;-72
2022/03/20 05:27:57;;;;;;;;;;;2.90;99.90;;;;;;5074889;28;19924;-73
2022/03/20 05:30:23;;;;;;;;;;;2.90;99.90;;;;;;5075185;28;20011;-72
2022/03/20 05:32:49;;;;;;;;;;;2.90;99.90;;;;;;5056794;28;19964;-73
2022/03/20 05:35:17;;;;;;;;;;;2.90;99.90;;;;;;5074784;28;20015;-72
2022/03/20 05:37:43;;;;;;;;;;;2.90;99.90;;;;;;5056723;28;19970;-73
2022/03/20 05:40:09;;;;;;;;;;;2.90;99.90;;;;;;5074648;28;19928;-73
2022/03/20 05:42:36;;;;;;;;;;;2.90;99.90;;;;;;5074374;28;19973;-73
2022/03/20 05:45:02;;;;;;;;;;;2.90;99.90;;;;;;5056555;28;19925;-73
2022/03/20 05:47:34;;;;;;;;;;;2.80;99.90;;;;;;5074824;28;19924;-72
2022/03/20 05:50:02;;;;;;;;;;;2.80;99.90;;;;;;5074574;28;19969;-72
2022/03/20 05:52:31;;;;;;;;;;;2.90;99.90;;;;;;5074210;28;19943;-72
2022/03/20 05:54:59;;;;;;;;;;;2.80;99.90;;;;;;5074160;28;19925;-73
2022/03/20 06:00:16;;;;;;;;;;;2.90;99.90;;;;;;5074469;28;19924;-72
2022/03/20 06:02:44;;;;;;;;;;;2.90;99.90;;;;;;5074330;28;19928;-72
2022/03/20 06:05:11;;;;;;;;;;;2.90;99.90;;;;;;5074427;28;19932;-72
2022/03/20 06:07:43;;;;;;;;;;;2.90;99.90;;;;;;5073949;28;19925;-72
2022/03/20 06:10:12;;;;;;;;;;;2.90;99.90;;;;;;5073972;28;19926;-73
2022/03/20 06:12:38;;;;;;;;;;;3.00;99.90;;;;;;5074128;28;19994;-73
2022/03/20 06:15:04;;;;;;;;;;;3.00;99.90;;;;;;5073958;28;19928;-72
2022/03/20 06:17:30;;;;;;;;;;;3.00;99.90;;;;;;5056296;28;20287;-72
2022/03/20 06:19:55;;;;;;;;;;;3.00;99.90;;;;;;5074013;28;19978;-72
2022/03/20 06:22:21;;;;;;;;;;;3.00;99.90;;;;;;5039435;28;20349;-73
2022/03/20 06:24:46;;;;;;;;;;;3.00;99.90;;;;;;5039569;28;20368;-73
2022/03/20 06:27:12;;;;;;;;;;;3.10;99.90;;;;;;5074079;28;19924;-72
2022/03/20 06:29:37;;;;;;;;;;;3.10;99.90;;;;;;5073877;28;20390;-73
2022/03/20 06:32:03;;;;;;;;;;;3.20;99.90;;;;;;5055971;28;20339;-73
2022/03/20 06:34:29;;;;;;;;;;;3.20;99.90;;;;;;5055828;28;19925;-73
2022/03/20 06:36:57;;;;;;;;;;;3.30;99.90;;;;;;5054924;28;19946;-72
2022/03/20 06:39:23;;;;;;;;;;;3.30;99.90;;;;;;5039171;28;19925;-72
2022/03/20 06:41:48;;;;;;;;;;;3.30;99.90;;;;;;5073615;28;19933;-72
2022/03/20 06:44:15;;;;;;;;;;;3.30;99.90;;;;;;5073513;28;19925;-73
2022/03/20 06:46:41;;;;;;;;;;;3.40;99.90;;;;;;5038960;28;19924;-72
2022/03/20 06:49:08;;;;;;;;;;;3.50;99.90;;;;;;5038712;28;19931;-73
2022/03/20 06:51:34;;;;;;;;;;;3.60;99.90;;;;;;5038538;28;19968;-72
2022/03/20 06:53:59;;;;;;;;;;;3.90;99.90;;;;;;5073301;28;20010;-72
2022/03/20 06:56:27;;;;;;;;;;;3.90;99.90;;;;;;5055176;28;19929;-73
2022/03/20 06:58:53;;;;;;;;;;;4.20;99.90;;;;;;5073702;28;19924;-73
2022/03/20 07:01:18;;;;;;;;;;;4.40;99.90;;;;;;5055503;28;20343;-73
2022/03/20 07:03:44;;;;;;;;;;;4.50;99.90;;;;;;5038832;28;19928;-73
2022/03/20 07:06:09;;;;;;;;;;;4.90;99.90;;;;;;5038609;28;20395;-72
2022/03/20 07:08:34;;;;;;;;;;;4.80;99.90;;;;;;5073506;28;19931;-72
2022/03/20 07:11:00;;;;;;;;;;;4.70;99.90;;;;;;5073320;28;20076;-72
2022/03/20 07:16:13;;;;;;;;;;;4.40;99.90;;;;;;5072881;28;20023;-73
2022/03/20 07:18:39;;;;;;;;;;;4.20;99.90;;;;;;5073254;28;19977;-72
2022/03/20 07:21:06;;;;;;;;;;;4.20;99.90;;;;;;5055075;28;20023;-72
2022/03/20 07:23:32;;;;;;;;;;;4.20;99.90;;;;;;5073262;28;19924;-72
2022/03/20 07:31:25;;;;;;;;;;;4.10;99.90;;;;;;5073168;28;19932;-72
2022/03/20 07:33:51;;;;;;;;;;;4.20;99.90;;;;;;5072948;28;19932;-73
2022/03/20 07:36:18;;;;;;;;;;;4.20;99.90;;;;;;5072977;28;19924;-73
2022/03/20 07:38:45;;;;;;;;;;;4.30;99.90;;;;;;5072886;28;20303;-73
2022/03/20 07:41:11;;;;;;;;;;;4.40;99.90;;;;;;5055011;28;19929;-73
2022/03/20 07:43:36;;;;;;;;;;;4.50;99.90;;;;;;5072809;28;19932;-73
2022/03/20 07:46:02;;;;;;;;;;;4.70;99.90;;;;;;5072991;28;19925;-72
2022/03/20 07:48:27;;;;;;;;;;;4.90;99.90;;;;;;5076132;28;19924;-73
2022/03/20 07:50:55;;;;;;;;;;;5.10;99.90;;;;;;5076685;28;20329;-73
2022/03/20 07:53:21;;;;;;;;;;;5.40;99.90;;;;;;5077070;28;19990;-72
2022/03/20 07:55:46;;;;;;;;;;;5.50;99.90;;;;;;5076525;28;19967;-73
2022/03/20 07:58:16;;;;;;;;;;;5.50;99.90;;;;;;5058944;28;19964;-73
2022/03/20 08:00:41;;;;;;;;;;;5.60;99.80;;;;;;5076532;28;20387;-72
2022/03/20 08:03:07;;;;;;;;;;;5.60;99.90;;;;;;5076832;28;19924;-73
2022/03/20 08:05:32;;;;;;;;;;;5.80;99.50;;;;;;5076759;28;19924;-73
2022/03/20 08:08:00;;;;;;;;;;;5.70;98.10;;;;;;5076389;28;19925;-73
2022/03/20 08:10:26;;;;;;;;;;;5.70;97.10;;;;;;5058559;28;19932;-73
2022/03/20 08:12:51;;;;;;;;;;;5.80;96.70;;;;;;5076555;28;19928;-73
2022/03/20 08:15:17;;;;;;;;;;;5.60;96.50;;;;;;5058231;28;19950;-73
2022/03/20 08:17:43;;;;;;;;;;;5.80;96.90;;;;;;5058296;28;19947;-73
2022/03/20 08:20:09;;;;;;;;;;;6.10;97.90;;;;;;5076297;28;19992;-73
2022/03/20 08:22:35;;;;;;;;;;;6.10;95.50;;;;;;5076233;28;19970;-73
2022/03/20 08:25:01;;;;;;;;;;;6.20;95.00;;;;;;5076000;28;19935;-73
2022/03/20 08:27:27;;;;;;;;;;;6.30;94.60;;;;;;5076226;28;19924;-73
2022/03/20 08:29:52;;;;;;;;;;;6.30;94.30;;;;;;5076029;28;20220;-73
2022/03/20 08:32:19;;;;;;;;;;;6.30;94.20;;;;;;5058123;28;19931;-73
2022/03/20 08:34:44;;;;;;;;;;;6.40;94.50;;;;;;5041587;28;19925;-73
2022/03/20 08:37:10;;;;;;;;;;;6.30;93.90;;;;;;5075889;28;19935;-73
2022/03/20 08:39:35;;;;;;;;;;;6.40;93.70;;;;;;5076028;28;20335;-73
2022/03/20 08:42:00;;;;;;;;;;;6.50;93.80;;;;;;5075806;28;19924;-73
2022/03/20 08:44:28;;;;;;;;;;;6.40;92.90;;;;;;5058074;28;20221;-73
2022/03/20 08:46:53;;;;;;;;;;;6.40;93.30;;;;;;5075814;28;19925;-73
2022/03/20 08:49:19;;;;;;;;;;;6.60;93.40;;;;;;5075840;28;20020;-73
2022/03/20 08:51:45;;;;;;;;;;;6.70;92.50;;;;;;5075943;28;20400;-73
2022/03/20 08:54:11;;;;;;;;;;;6.70;91.70;;;;;;5075496;28;19929;-74
2022/03/20 08:56:37;;;;;;;;;;;6.70;90.50;;;;;;5057817;28;19925;-73
2022/03/20 08:59:02;;;;;;;;;;;6.70;89.60;;;;;;5057021;28;20404;-73
2022/03/20 09:01:28;;;;;;;;;;;6.60;87.10;;;;;;5075498;28;19932;-73
2022/03/20 09:03:54;;;;;;;;;;;6.70;89.70;;;;;;5075508;28;19925;-73
2022/03/20 09:06:20;;;;;;;;;;;7.00;90.40;;;;;;5075981;28;19925;-73
2022/03/20 09:08:46;;;;;;;;;;;6.90;86.10;;;;;;5057430;28;20007;-73
2022/03/20 09:11:11;;;;;;;;;;;6.80;84.20;;;;;;5057712;28;20065;-73
2022/03/20 09:13:37;;;;;;;;;;;6.90;83.70;;;;;;5075521;28;19930;-73
2022/03/20 09:19:07;;;;;;;;;;;7.10;86.40;;;;;;5075250;28;19925;-75
2022/03/20 09:21:36;;;;;;;;;;;7.20;92.60;;;;;;5057185;28;19925;-74
2022/03/20 09:24:03;;;;;;;;;;;7.20;82.90;;;;;;5057066;28;20268;-74
2022/03/20 09:26:28;;;;;;;;;;;7.30;81.20;;;;;;5040966;28;19967;-74
2022/03/20 09:28:54;;;;;;;;;;;7.30;81.00;;;;;;5074987;28;19932;-74
2022/03/20 09:31:20;;;;;;;;;;;7.40;80.90;;;;;;5056936;28;20015;-74
2022/03/20 09:33:46;;;;;;;;;;;7.50;81.30;;;;;;5074743;28;19924;-74
2022/03/20 09:36:11;;;;;;;;;;;7.20;91.70;;;;;;5074815;28;19977;-75
2022/03/20 09:38:37;;;;;;;;;;;7.70;80.90;;;;;;5074981;28;19925;-75
2022/03/20 09:41:07;;;;;;;;;;;7.60;78.50;;;;;;5056636;28;19925;-73
2022/03/20 09:43:33;;;;;;;;;;;7.60;77.10;;;;;;5056741;28;20009;-74
2022/03/20 09:45:58;;;;;;;;;;;7.70;77.20;;;;;;5074553;28;19924;-73
2022/03/20 09:48:26;;;;;;;;;;;7.70;76.50;;;;;;5074674;28;20291;-74
2022/03/20 09:50:51;;;;;;;;;;;;;;;;;;5074209;28;19940;-75
2022/03/20 09:53:17;;;;;;;;;;;;;;;;;;5074597;28;19921;-75
2022/03/20 09:55:43;;;;;;;;;;;8.20;85.60;;;;;;5074472;28;20291;-75
2022/03/20 09:58:12;;;;;;;;;;;;;;;;;;5056393;28;20069;-75
2022/03/20 10:00:37;;;;;;;;;;;8.00;99.90;;;;;;5056216;28;19996;-75
2022/03/20 10:03:06;;;;;;;;;;;;;;;;;;5056408;28;19983;-75
2022/03/20 10:05:32;;;;;;;;;;;;;;;;;;5074373;28;19928;-75
2022/03/20 10:08:09;;;;;;;;;;;8.60;73.40;;;;;;5074517;28;20413;-75
2022/03/20 10:10:35;;;;;;;;;;;8.70;73.30;;;;;;5044091;28;19974;-74
2022/03/20 10:13:00;;;;;;;;;;;8.70;71.90;;;;;;5074129;28;19929;-74
2022/03/20 10:15:30;;;;;;;;;;;8.80;71.70;;;;;;5073863;28;19924;-74
2022/03/20 10:18:05;;;;;;;;;;;8.90;71.70;;;;;;5074203;28;19964;-74
2022/03/20 10:20:35;;;;;;;;;;;8.90;72.30;;;;;;5074068;28;19924;-73
2022/03/20 10:23:01;;;;;;;;;;;8.90;70.00;;;;;;5074141;28;19924;-73
2022/03/20 10:25:26;;;;;;;;;;;9.00;69.90;;;;;;5055908;28;19925;-74
2022/03/20 10:28:00;;;;;;;;;;;9.30;72.90;;;;;;5073916;28;19931;-75
2022/03/20 10:30:26;;;;;;;;;;;;;;;;;;5073951;28;19924;-75
2022/03/20 10:32:52;;;;;;;;;;;;;;;;;;5055674;28;20035;-75
2022/03/20 10:35:18;;;;;;;;;;;;;;;;;;5056027;28;19993;-75
2022/03/20 10:37:43;;;;;;;;;;;;;;;;;;5055981;28;19936;-75
2022/03/20 10:40:09;;;;;;;;;;;;;;;;;;5073834;28;19924;-75
2022/03/20 10:42:35;;;;;;;;;;;;;;;;;;5073482;28;19925;-75
2022/03/20 10:45:01;;;;;;;;;;;;;;;;;;5073550;28;20367;-75
2022/03/20 10:47:27;;;;;;;;;;;;;;;;;;5073414;28;20078;-72
2022/03/20 10:49:53;;;;;;;;;;;;;;;;;;5055377;28;19951;-72
2022/03/20 10:52:19;;;;;;;;;;;;;;;;;;5054982;28;19925;-72
2022/03/20 10:54:45;;;;;;;;;;;9.50;99.60;;;;;;5073458;28;20367;-72
2022/03/20 10:57:12;;;;;;;;;;;9.90;71.00;;;;;;5073354;28;19932;-73
2022/03/20 10:59:40;;;;;;;;;;;;;;;;;;5073447;28;19924;-73
2022/03/20 11:02:08;;;;;;;;;;;;;;;;;;5073415;28;19931;-73
2022/03/20 11:04:34;;;;;;;;;;;;;;;;;;5073247;28;19925;-72
2022/03/20 11:07:00;;;;;;;;;;;9.70;90.20;;;;;;5055388;28;19924;-72
2022/03/20 11:09:26;;;;;;;;;;;9.70;65.70;;;;;;5073362;28;19925;-72
2022/03/20 11:11:53;;;;;;;;;;;9.70;65.20;;;;;;5038396;28;19932;-72
2022/03/20 11:14:19;;;;;;;;;;;9.80;66.30;;;;;;5073115;28;19943;-72
2022/03/20 11:16:53;;;;;;;;;;;9.80;65.20;;;;;;5073024;28;19954;-71
2022/03/20 11:19:23;;;;;;;;;;;9.70;64.80;;;;;;5073260;28;19924;-72
2022/03/20 11:21:52;;;;;;;;;;;9.80;64.90;;;;;;5072509;28;20410;-72
2022/03/20 11:24:18;;;;;;;;;;;;;;;;;;5055048;28;20423;-73
2022/03/20 11:26:47;;;;;;;;;;;9.80;91.30;;;;;;5055323;28;19979;-72
2022/03/20 11:29:12;;;;;;;;;;;10.40;92.90;;;;;;5054869;28;19971;-72
2022/03/20 11:31:38;;;;;;;;;;;10.40;91.00;;;;;;5073146;28;19971;-71
2022/03/20 11:34:07;;;;;;;;;;;10.40;64.20;;;;;;5054907;28;19925;-72
2022/03/20 11:36:53;;;;;;;;;;;10.40;62.70;;;;;;5054680;28;19924;-72
2022/03/20 11:39:18;;;;;;;;;;;10.40;62.70;;;;;;5072538;28;20375;-71
2022/03/20 11:41:44;;;;;;;;;;;10.40;63.30;;;;;;5055037;28;19932;-73
2022/03/20 11:44:10;;;;;;;;;;;;;;;;;;5073105;28;20015;-73
2022/03/20 11:46:35;;;;;;;;;;;10.60;96.80;;;;;;5072717;28;19924;-72
2022/03/20 11:49:12;;;;;;;;;;;10.90;91.70;;;;;;5072828;28;20411;-72
2022/03/20 11:51:52;;;;;;;;;;;11.00;90.30;;;;;;5054200;28;19925;-72
2022/03/20 11:54:18;;;;;;;;;;;11.00;80.90;;;;;;5073320;28;19921;-71
2022/03/20 11:56:43;;;;;;;;;;;10.80;60.70;;;;;;5072840;28;20348;-71
2022/03/20 11:59:27;;;;;;;;;;;10.60;60.90;;;;;;5072908;28;20045;-71
2022/03/20 12:02:01;;;;;;;;;;;10.60;62.80;;;;;;5072500;28;20018;-71
2022/03/20 12:04:33;;;;;;;;;;;10.60;62.70;;;;;;5072804;28;19944;-71
2022/03/20 12:07:05;;;;;;;;;;;10.50;62.70;;;;;;5072859;28;19925;-71
2022/03/20 12:09:36;;;;;;;;;;;10.60;62.60;;;;;;5054486;28;19935;-71
2022/03/20 12:12:02;;;;;;;;;;;10.50;62.40;;;;;;5072695;28;20011;-72
2022/03/20 12:14:27;;;;;;;;;;;10.50;63.30;;;;;;5072789;28;19977;-71
2022/03/20 12:16:54;;;;;;;;;;;10.40;62.80;;;;;;5072329;28;19924;-71
2022/03/20 12:19:24;;;;;;;;;;;10.50;63.00;;;;;;5072638;28;19924;-72
2022/03/20 12:21:52;;;;;;;;;;;10.60;62.80;;;;;;5054425;28;19928;-74
2022/03/20 12:24:36;;;;;;;;;;;10.70;63.50;;;;;;5072489;28;20030;-74
2022/03/20 12:27:23;;;;;;;;;;;10.80;62.70;;;;;;5054522;28;20359;-73
2022/03/20 12:29:51;;;;;;;;;;;10.90;62.80;;;;;;5054628;28;19925;-74
2022/03/20 12:32:20;;;;;;;;;;;10.80;63.50;;;;;;5072391;28;19931;-74
2022/03/20 12:35:04;;;;;;;;;;;10.70;62.60;;;;;;5074361;28;19978;-74
2022/03/20 12:37:33;;;;;;;;;;;10.60;63.20;;;;;;5076221;28;19956;-74
2022/03/20 12:40:01;;;;;;;;;;;10.50;63.90;;;;;;5076088;28;19928;-74
2022/03/20 12:42:27;;;;;;;;;;;10.40;64.20;;;;;;5057826;28;19931;-74
2022/03/20 12:44:52;;;;;;;;;;;10.40;63.30;;;;;;5076105;28;19925;-74
2022/03/20 12:47:19;;;;;;;;;;;10.30;63.70;;;;;;5076027;28;19981;-73
2022/03/20 12:49:46;;;;;;;;;;;10.40;64.10;;;;;;5075997;28;19924;-74
2022/03/20 12:52:12;;;;;;;;;;;10.30;64.90;;;;;;5057716;28;20374;-74
2022/03/20 12:54:38;;;;;;;;;;;10.30;65.70;;;;;;5075512;28;20018;-74
2022/03/20 12:57:04;;;;;;;;;;;10.30;65.30;;;;;;5075576;28;19971;-74
2022/03/20 12:59:30;;;;;;;;;;;10.30;65.30;;;;;;5057519;28;19932;-74
2022/03/20 13:01:55;;;;;;;;;;;10.30;65.70;;;;;;5075676;28;19924;-74
2022/03/20 13:04:21;;;;;;;;;;;10.30;67.20;;;;;;5040645;28;19936;-74
2022/03/20 13:06:47;;;;;;;;;;;10.40;67.30;;;;;;5057446;28;19964;-74
2022/03/20 13:09:13;;;;;;;;;;;10.50;65.80;;;;;;5040947;28;19967;-74
2022/03/20 13:11:48;;;;;;;;;;;10.50;65.20;;;;;;5040735;28;19931;-73
2022/03/20 13:14:15;;;;;;;;;;;10.60;66.10;;;;;;5057532;28;19975;-74
2022/03/20 13:16:51;;;;;;;;;;;10.70;66.40;;;;;;5040551;28;19964;-73
2022/03/20 13:19:30;;;;;;;;;;;10.80;66.40;;;;;;5075376;28;19932;-74
2022/03/20 13:21:56;;;;;;;;;;;10.80;65.30;;;;;;5075223;28;19924;-73
2022/03/20 13:24:28;;;;;;;;;;;10.90;65.40;;;;;;5057200;28;20145;-73
2022/03/20 13:26:57;;;;;;;;;;;11.00;64.80;;;;;;5075072;28;19924;-73
2022/03/20 13:29:23;;;;;;;;;;;11.10;66.00;;;;;;5074879;28;20007;-74
2022/03/20 13:32:08;;;;;;;;;;;11.20;65.10;;;;;;5056892;28;19990;-73
2022/03/20 13:34:39;;;;;;;;;;;11.20;65.20;;;;;;5056904;28;19932;-74
2022/03/20 13:37:07;;;;;;;;;;;11.20;64.30;;;;;;5074828;28;19943;-73
2022/03/20 13:39:33;;;;;;;;;;;11.20;65.00;;;;;;5074708;28;20021;-74
2022/03/20 13:41:59;;;;;;;;;;;11.20;63.50;;;;;;5074983;28;20077;-74
2022/03/20 13:44:24;;;;;;;;;;;11.30;65.00;;;;;;5074696;28;19982;-74
2022/03/20 13:46:50;;;;;;;;;;;11.40;63.60;;;;;;5074442;28;19931;-74
2022/03/20 13:49:15;;;;;;;;;;;11.50;64.20;;;;;;5074677;28;19928;-74
2022/03/20 13:51:45;;;;;;;;;;;11.50;64.30;;;;;;5056201;28;20352;-71
2022/03/20 13:54:22;;;;;;;;;;;11.60;63.40;;;;;;5074666;28;19925;-71
2022/03/20 13:56:48;;;;;;;;;;;11.60;63.60;;;;;;5074642;28;19924;-71
2022/03/20 13:59:17;;;;;;;;;;;11.60;63.80;;;;;;5074448;28;19925;-71
2022/03/20 14:01:47;;;;;;;;;;;11.50;63.40;;;;;;5074687;28;19932;-71
2022/03/20 14:04:15;;;;;;;;;;;11.50;63.20;;;;;;5074246;28;19932;-71
2022/03/20 14:06:41;;;;;;;;;;;11.50;63.90;;;;;;5074727;28;19929;-71
2022/03/20 14:09:07;;;;;;;;;;;11.50;63.90;;;;;;5074689;28;19925;-71
2022/03/20 14:11:35;;;;;;;;;;;11.60;64.10;;;;;;5074110;28;19925;-71
2022/03/20 14:14:01;;;;;;;;;;;11.50;63.50;;;;;;5074330;28;20301;-72
2022/03/20 14:16:26;;;;;;;;;;;11.60;63.40;;;;;;5074219;28;19924;-71
2022/03/20 14:18:52;;;;;;;;;;;11.50;63.20;;;;;;5056168;28;19929;-71
2022/03/20 14:21:19;;;;;;;;;;;11.50;64.20;;;;;;5074098;28;20267;-71
2022/03/20 14:23:56;;;;;;;;;;;11.60;63.50;;;;;;5055879;28;19932;-71
2022/03/20 14:26:22;;;;;;;;;;;11.60;64.00;;;;;;5074085;28;19928;-74
2022/03/20 14:29:01;;;;;;;;;;;11.50;63.90;;;;;;5056176;28;19924;-71
2022/03/20 14:39:43;;;;;;;;;;;11.70;64.10;;;;;;5073720;28;19997;-71
2022/03/20 14:42:21;;;;;;;;;;;11.70;64.20;;;;;;5055960;28;20284;-74
2022/03/20 14:44:50;;;;;;;;;;;11.80;63.30;;;;;;5073690;28;19928;-74
2022/03/20 14:47:17;;;;;;;;;;;11.80;63.70;;;;;;5073410;28;20391;-73
2022/03/20 14:49:42;;;;;;;;;;;11.80;63.50;;;;;;5073524;28;20375;-74
2022/03/20 14:52:09;;;;;;;;;;;11.80;63.70;;;;;;5073124;28;20075;-73
2022/03/20 14:54:34;;;;;;;;;;;11.70;64.90;;;;;;5073185;28;20398;-73
2022/03/20 14:57:00;;;;;;;;;;;11.70;64.20;;;;;;5054735;28;19924;-74
2022/03/20 14:59:25;;;;;;;;;;;11.60;65.30;;;;;;5073527;28;19925;-73
2022/03/20 15:01:51;;;;;;;;;;;11.60;64.50;;;;;;5055335;28;20422;-73
2022/03/20 15:04:17;;;;;;;;;;;11.50;65.20;;;;;;5073449;28;19931;-73
2022/03/20 15:06:47;;;;;;;;;;;11.50;65.30;;;;;;5073282;28;19924;-74
2022/03/20 15:11:57;;;;;;;;;;;11.40;66.00;;;;;;5073485;28;19997;-74
2022/03/20 15:14:22;;;;;;;;;;;11.40;67.00;;;;;;5073270;28;19971;-71
2022/03/20 15:16:50;;;;;;;;;;;11.30;67.10;;;;;;5054950;28;20456;-73